Data for 01/18/2008

Time Sea-Level Adjusted Pressure Absolute Pressure Temperature Relative Humidity Dew Point   
(mb) (inHg) (mb) (inHg) (C) (F) (%) (C) (F)
00:05 1020 30.12 849 25.07 -5.5 22.1 94 -6.4 20.5
00:10 1020 30.12 849 25.07 -5.5 22.1 92 -6.6 20
00:15 1020 30.12 849 25.07 -6 21.2 94 -6.9 19.6
00:20 1020 30.12 849 25.07 -6.3 20.7 95 -6.9 19.5
00:25 1020 30.12 849 25.07 -6.1 21 94 -7 19.4
00:30 1020 30.12 849 25.07 -6.1 21 94 -7 19.5
00:35 1020 30.12 849 25.07 -6.1 21 94 -6.9 19.5
00:40 1019 30.09 849 25.07 -6.1 21 94 -6.9 19.6
00:45 1019 30.09 849 25.07 -6.1 21 94 -6.9 19.5
00:50 1019 30.09 849 25.07 -6.1 21 93 -7 19.4
00:55 1019 30.09 849 25.07 -6.1 21 94 -6.9 19.5
01:00 1019 30.09 849 25.07 -6.1 21 94 -7 19.4
01:05 1019 30.09 849 25.07 -6.2 20.9 94 -7 19.3
01:10 1019 30.09 849 25.07 -6.2 20.8 94 -7 19.3
01:15 1019 30.09 849 25.07 -6.2 20.8 94 -7.1 19.3
01:20 1019 30.09 849 25.07 -6.3 20.6 94 -7.2 19.1
01:25 1019 30.09 848 25.04 -6.3 20.6 93 -7.3 18.9
01:30 1019 30.09 849 25.07 -6.5 20.4 93 -7.4 18.7
01:35 1019 30.09 849 25.07 -6.6 20 94 -7.4 18.7
01:40 1019 30.09 849 25.07 -6.6 20.2 94 -7.3 18.8
01:45 1019 30.09 849 25.07 -6.5 20.3 94 -7.3 18.9
01:50 1020 30.12 849 25.07 -6.4 20.5 94 -7.2 19
01:55 1020 30.12 849 25.07 -6.4 20.6 94 -7.2 19.1
02:00 1020 30.12 849 25.07 -6.3 20.6 94 -7.2 19.1
02:05 1020 30.12 849 25.07 -6.3 20.7 94 -7.1 19.1
02:10 1020 30.12 849 25.07 -6.3 20.7 94 -7.2 19.1
02:15 1020 30.12 849 25.07 -6.3 20.6 93 -7.2 19
02:20 1020 30.12 849 25.07 -6.3 20.7 93 -7.2 19
02:25 1020 30.12 849 25.07 -6.3 20.6 93 -7.2 19
02:30 1020 30.12 849 25.07 -6.3 20.6 93 -7.3 18.9
02:35 1020 30.12 849 25.07 -6.3 20.6 93 -7.2 19
02:40 1020 30.12 849 25.07 -6.3 20.6 94 -7.2 19
02:45 1020 30.12 849 25.07 -6.3 20.7 93 -7.2 19.1
02:50 1020 30.12 849 25.07 -6.3 20.7 93 -7.2 19.1
02:55 1020 30.12 849 25.07 -6.3 20.7 93 -7.2 19
03:00 1020 30.12 849 25.07 -6.3 20.7 93 -7.2 19
03:05 1020 30.12 849 25.07 -6.3 20.7 93 -7.2 19
03:10 1020 30.12 849 25.07 -6.3 20.7 93 -7.2 19.1
03:15 1020 30.12 849 25.07 -6.3 20.7 94 -7.1 19.2
03:20 1020 30.12 849 25.07 -6.2 20.8 93 -7.2 19.1
03:25 1020 30.12 849 25.07 -6.2 20.8 93 -7.2 19.1
03:30 1020 30.12 849 25.07 -6.2 20.8 93 -7.2 19.1
03:35 1020 30.12 849 25.07 -6.2 20.8 93 -7.2 19.1
03:40 1020 30.12 849 25.07 -6.2 20.8 93 -7.1 19.2
03:45 1020 30.12 849 25.07 -6.2 20.9 93 -7.1 19.2
03:50 1020 30.12 849 25.07 -6.2 20.9 93 -7.1 19.2
03:55 1020 30.12 849 25.07 -6.1 21 93 -7 19.3
04:00 1020 30.12 849 25.07 -6.1 21 93 -7.1 19.3
04:05 1020 30.12 849 25.07 -6.1 21 93 -7.2 19.1
04:10 1020 30.12 849 25.07 -6.1 21 93 -7.1 19.3
04:15 1020 30.12 849 25.07 -6.1 21 93 -7.1 19.2
04:20 1020 30.12 849 25.07 -6.1 20.9 93 -7.1 19.2
04:25 1020 30.12 850 25.1 -6.2 20.8 93 -7.1 19.1
04:30 1020 30.12 850 25.1 -6.2 20.9 93 -7.1 19.1
04:35 1020 30.12 850 25.1 -6.2 20.9 93 -7.1 19.2
04:40 1020 30.12 850 25.1 -6.1 21 93 -7.1 19.2
04:45 1020 30.12 850 25.1 -6.1 21 93 -7.1 19.3
04:50 1021 30.15 850 25.1 -6.1 21.1 92 -7.1 19.2
04:55 1021 30.15 850 25.1 -6.1 21 92 -7.2 19.1
05:00 1021 30.15 850 25.1 -6.1 21 93 -7.1 19.2
05:05 1021 30.15 850 25.1 -6.2 20.9 93 -7.1 19.2
05:10 1021 30.15 850 25.1 -6.2 20.9 93 -7.2 19.1
05:15 1021 30.15 850 25.1 -6.2 20.9 92 -7.2 19
05:20 1021 30.15 850 25.1 -6.3 20.7 93 -7.3 18.9
05:25 1021 30.15 850 25.1 -6.3 20.7 93 -7.3 18.9
05:30 1021 30.15 850 25.1 -6.3 20.7 93 -7.3 18.9
05:35 1021 30.15 850 25.1 -6.3 20.7 93 -7.3 18.9
05:40 1021 30.15 850 25.1 -6.3 20.6 92 -7.4 18.6
05:45 1021 30.15 850 25.1 -6.4 20.5 92 -7.4 18.6
05:50 1021 30.15 850 25.1 -6.4 20.5 92 -7.5 18.5
05:55 1021 30.15 850 25.1 -6.4 20.4 92 -7.5 18.4
06:00 1021 30.15 850 25.1 -6.4 20.4 92 -7.5 18.5
06:05 1021 30.15 850 25.1 -6.4 20.4 92 -7.5 18.5
06:10 1021 30.15 850 25.1 -6.4 20.4 92 -7.5 18.5
06:15 1021 30.15 850 25.1 -6.4 20.4 92 -7.5 18.5
06:20 1021 30.15 850 25.1 -6.4 20.4 92 -7.5 18.4
06:25 1021 30.15 850 25.1 -6.5 20.4 92 -7.6 18.3
06:30 1021 30.15 851 25.13 -6.5 20.3 92 -7.6 18.3
06:35 1021 30.15 851 25.13 -6.6 20.2 92 -7.7 18.2
06:40 1021 30.15 851 25.13 -6.6 20.1 92 -7.7 18.1
06:45 1021 30.15 851 25.13 -6.6 20.1 92 -7.7 18.2
06:50 1021 30.15 851 25.13 -6.6 20.1 92 -7.7 18.2
06:55 1022 30.18 851 25.13 -6.6 20.2 92 -7.7 18.2
07:00 1022 30.18 851 25.13 -6.6 20.2 92 -7.7 18.1
07:05 1022 30.18 851 25.13 -6.6 20.1 92 -7.7 18.2
07:10 1022 30.18 851 25.13 -6.6 20.1 92 -7.7 18.2
07:15 1022 30.18 851 25.13 -6.6 20.1 92 -7.7 18.1
07:20 1022 30.18 851 25.13 -6.7 20 93 -7.7 18.2
07:25 1022 30.18 851 25.13 -6.7 20 92 -7.8 18
07:30 1022 30.18 851 25.13 -6.8 19.7 93 -7.8 18
07:35 1022 30.18 851 25.13 -6.9 19.6 93 -7.8 17.9
07:40 1022 30.18 851 25.13 -6.9 19.7 93 -7.8 18
07:45 1022 30.18 851 25.13 -6.8 19.7 93 -7.8 17.9
07:50 1022 30.18 851 25.13 -6.8 19.8 93 -7.7 18.1
07:55 1022 30.18 851 25.13 -6.8 19.7 93 -7.7 18.1
08:00 1022 30.18 851 25.13 -6.9 19.6 93 -7.8 18
08:05 1022 30.18 852 25.16 -6.7 19.9 93 -7.7 18.1
08:10 1022 30.18 852 25.16 -6.7 19.9 92 -7.8 18
08:15 1022 30.18 852 25.16 -6.7 20 92 -7.8 18
08:20 1022 30.18 852 25.16 -6.6 20.1 92 -7.8 18
08:25 1023 30.21 852 25.16 -6.6 20.1 92 -7.7 18.1
08:30 1023 30.21 852 25.16 -6.6 20.2 92 -7.7 18.1
08:35 1023 30.21 852 25.16 -6.5 20.3 91 -7.7 18.1
08:40 1023 30.21 852 25.16 -6.4 20.4 91 -7.7 18.2
08:45 1023 30.21 852 25.16 -6.4 20.5 90 -7.7 18.2
08:50 1023 30.21 852 25.16 -6.3 20.6 90 -7.7 18.2
08:55 1023 30.21 852 25.16 -6.3 20.7 90 -7.7 18.2
09:00 1023 30.21 852 25.16 -6.2 20.8 90 -7.7 18.2
09:05 1023 30.21 852 25.16 -6.2 20.9 88 -7.9 17.8
09:10 1023 30.21 852 25.16 -6.4 20.5 89 -7.9 17.7
09:15 1023 30.21 852 25.16 -6.3 20.6 89 -7.9 17.8
09:20 1023 30.21 852 25.16 -6.4 20.5 88 -8 17.6
09:25 1023 30.21 853 25.19 -6.4 20.5 89 -7.8 17.9
09:30 1023 30.21 853 25.19 -6 21.1 89 -7.6 18.3
09:35 1023 30.21 853 25.19 -5.9 21.4 87 -7.7 18.1
09:40 1023 30.21 853 25.19 -6 21.2 89 -7.5 18.5
09:45 1024 30.24 853 25.19 -5.9 21.5 89 -7.4 18.7
09:50 1024 30.24 853 25.19 -5.6 21.8 88 -7.4 18.7
09:55 1024 30.24 853 25.19 -5.4 22.3 86 -7.4 18.6
10:00 1024 30.24 853 25.19 -5.4 22.2 87 -7.3 18.9
10:05 1024 30.24 853 25.19 -5.4 22.2 87 -7.3 18.9
10:10 1024 30.24 853 25.19 -5.3 22.4 86 -7.2 19
10:15 1024 30.24 853 25.19 -5.1 22.8 85 -7.2 19
10:20 1024 30.24 853 25.19 -5.1 22.8 85 -7.2 19
10:25 1024 30.24 853 25.19 -5 23 86 -7 19.3
10:30 1024 30.24 853 25.19 -5 23 85 -7.1 19.3
10:35 1024 30.24 853 25.19 -4.9 23.2 85 -7 19.4
10:40 1024 30.24 853 25.19 -5 23.1 86 -7 19.5
10:45 1024 30.24 853 25.19 -5 23 86 -6.9 19.5
10:50 1024 30.24 853 25.19 -4.8 23.3 85 -6.9 19.5
10:55 1024 30.24 853 25.19 -4.7 23.5 84 -7.1 19.2
11:00 1024 30.24 854 25.22 -4.6 23.7 83 -7.2 19.1
11:05 1024 30.24 853 25.19 -4.5 23.8 84 -6.9 19.6
11:10 1024 30.24 853 25.19 -4.7 23.6 84 -7 19.4
11:15 1024 30.24 853 25.19 -4.8 23.4 83 -7.2 19
11:20 1024 30.24 853 25.19 -4.8 23.4 83 -7.2 19
11:25 1024 30.24 853 25.19 -4.7 23.5 83 -7.2 19
11:30 1024 30.24 853 25.19 -4.8 23.4 84 -7.1 19.2
11:35 1024 30.24 853 25.19 -4.5 23.9 83 -7 19.4
11:40 1024 30.24 853 25.19 -4.4 24.1 82 -7.1 19.3
11:45 1024 30.24 853 25.19 -4.4 24.1 80 -7.3 18.9
11:50 1024 30.24 853 25.19 -4.3 24.3 81 -7.1 19.2
11:55 1024 30.24 853 25.19 -4.1 24.5 80 -7.1 19.2
12:00 1024 30.24 853 25.19 -4.1 24.6 80 -7.1 19.3
12:05 1024 30.24 853 25.19 -4.1 24.7 78 -7.4 18.8
12:10 1024 30.24 853 25.19 -4 24.8 77 -7.4 18.7
12:15 1024 30.24 853 25.19 -4 24.8 79 -7.2 19
12:20 1024 30.24 853 25.19 -3.9 25 77 -7.3 18.9
12:25 1024 30.24 853 25.19 -3.9 25.1 77 -7.4 18.8
12:30 1024 30.24 853 25.19 -4 24.8 78 -7.3 18.8
12:35 1024 30.24 853 25.19 -4.2 24.4 77 -7.6 18.3
12:40 1024 30.24 853 25.19 -4.4 24.1 78 -7.7 18.2
12:45 1024 30.24 853 25.19 -4.2 24.4 77 -7.8 18
12:50 1024 30.24 853 25.19 -4 24.9 75 -7.8 18
12:55 1024 30.24 853 25.19 -3.9 25 73 -8 17.6
13:00 1024 30.24 853 25.19 -4.1 24.5 75 -7.9 17.8
13:05 1024 30.24 853 25.19 -4.1 24.7 75 -7.8 17.9
13:10 1024 30.24 853 25.19 -4.1 24.6 73 -8.2 17.3
13:15 1023 30.21 853 25.19 -4 24.9 72 -8.3 17
13:20 1023 30.21 853 25.19 -3.9 25 69 -8.7 16.3
13:25 1023 30.21 853 25.19 -4 24.8 70 -8.7 16.4
13:30 1023 30.21 853 25.19 -3.8 25.2 65 -9.4 15.1
13:35 1023 30.21 853 25.19 -3.7 25.3 65 -9.5 15
13:40 1023 30.21 853 25.19 -3.8 25.2 67 -9 15.7
13:45 1023 30.21 853 25.19 -3.8 25.2 70 -8.5 16.6
13:50 1023 30.21 853 25.19 -3.8 25.1 67 -9.1 15.7
13:55 1023 30.21 853 25.19 -4.2 24.4 68 -9.3 15.3
14:00 1023 30.21 852 25.16 -4.5 24 70 -9.2 15.5
14:05 1023 30.21 853 25.19 -4.3 24.2 69 -9.1 15.6
14:10 1023 30.21 852 25.16 -4.6 23.8 68 -9.6 14.6
14:15 1023 30.21 852 25.16 -4.7 23.5 70 -9.5 15
14:20 1023 30.21 852 25.16 -5.2 22.7 71 -9.7 14.6
14:25 1023 30.21 852 25.16 -5.5 22.1 70 -10.2 13.6
14:30 1023 30.21 852 25.16 -5.7 21.7 69 -10.5 13.1
14:35 1023 30.21 852 25.16 -5.6 21.9 68 -10.6 12.8
14:40 1023 30.21 852 25.16 -5.4 22.3 67 -10.6 12.9
14:45 1023 30.21 852 25.16 -5.2 22.7 65 -10.8 12.5
14:50 1023 30.21 852 25.16 -5.2 22.6 65 -10.8 12.5
14:55 1023 30.21 852 25.16 -5.2 22.7 67 -10.4 13.2
15:00 1023 30.21 852 25.16 -4.9 23.2 66 -10.4 13.3
15:05 1023 30.21 852 25.16 -4.9 23.2 65 -10.6 13
15:10 1023 30.21 852 25.16 -5.2 22.6 66 -10.5 13
15:15 1023 30.21 852 25.16 -5.2 22.6 66 -10.6 12.9
15:20 1023 30.21 852 25.16 -5.2 22.7 65 -10.7 12.7
15:25 1023 30.21 852 25.16 -5.3 22.4 66 -10.7 12.8
15:30 1023 30.21 852 25.16 -5.8 21.5 68 -10.8 12.6
15:35 1023 30.21 852 25.16 -6.1 21.1 68 -11 12.1
15:40 1023 30.21 852 25.16 -6.1 21 70 -10.7 12.8
15:45 1023 30.21 852 25.16 -6.1 21.1 73 -10.2 13.6
15:50 1023 30.21 852 25.16 -5.8 21.5 71 -10.3 13.5
15:55 1023 30.21 852 25.16 -5.8 21.6 67 -10.9 12.3
16:00 1023 30.21 852 25.16 -6.1 21 69 -10.9 12.4
16:05 1023 30.21 852 25.16 -5.9 21.3 68 -11 12.2
16:10 1023 30.21 852 25.16 -5.8 21.5 69 -10.7 12.8
16:15 1023 30.21 852 25.16 -5.9 21.4 69 -10.7 12.7
16:20 1023 30.21 852 25.16 -6.2 20.9 70 -10.8 12.6
16:25 1023 30.21 852 25.16 -5.9 21.3 71 -10.4 13.2
16:30 1023 30.21 852 25.16 -5.7 21.7 69 -10.6 12.9
16:35 1023 30.21 852 25.16 -5.8 21.6 70 -10.5 13.2
16:40 1023 30.21 852 25.16 -5.8 21.6 70 -10.3 13.4
16:45 1023 30.21 852 25.16 -5.9 21.4 70 -10.4 13.2
16:50 1023 30.21 852 25.16 -5.9 21.3 72 -10.1 13.8
16:55 1023 30.21 852 25.16 -6 21.3 72 -10.2 13.7
17:00 1023 30.21 852 25.16 -6 21.2 72 -10.2 13.6
17:05 1023 30.21 852 25.16 -6.3 20.6 77 -9.6 14.6
17:10 1022 30.18 852 25.16 -6.5 20.3 80 -9.4 15
17:15 1022 30.18 852 25.16 -6.6 20.1 80 -9.4 15
17:20 1022 30.18 852 25.16 -6.8 19.7 83 -9.3 15.3
17:25 1022 30.18 852 25.16 -7 19.5 83 -9.3 15.2
17:30 1022 30.18 852 25.16 -7.1 19.2 84 -9.4 15
17:35 1022 30.18 851 25.13 -7.2 19 84 -9.5 14.8
17:40 1022 30.18 851 25.13 -7.2 19 83 -9.7 14.6
17:45 1022 30.18 851 25.13 -7.1 19.3 81 -9.9 14.2
17:50 1022 30.18 851 25.13 -7 19.3 81 -9.8 14.3
17:55 1022 30.18 851 25.13 -7.1 19.2 81 -9.9 14.2
18:00 1022 30.18 851 25.13 -7.2 19.1 81 -9.9 14.2
18:05 1022 30.18 851 25.13 -7.1 19.1 83 -9.6 14.7
18:10 1022 30.18 851 25.13 -7.2 19 83 -9.6 14.6
18:15 1022 30.18 851 25.13 -7.3 18.9 83 -9.7 14.5
18:20 1022 30.18 851 25.13 -7.3 18.8 83 -9.8 14.4
18:25 1022 30.18 851 25.13 -7.3 18.8 84 -9.6 14.7
18:30 1022 30.18 851 25.13 -7.4 18.6 85 -9.6 14.8
18:35 1022 30.18 851 25.13 -7.6 18.3 86 -9.6 14.7
18:40 1022 30.18 851 25.13 -7.7 18.1 86 -9.7 14.6
18:45 1022 30.18 851 25.13 -7.8 18 86 -9.8 14.4
18:50 1022 30.18 851 25.13 -7.8 17.9 86 -9.8 14.4
18:55 1022 30.18 851 25.13 -7.9 17.8 86 -9.8 14.3
19:00 1022 30.18 851 25.13 -7.9 17.7 86 -9.9 14.2
19:05 1022 30.18 851 25.13 -7.9 17.9 86 -9.9 14.2
19:10 1022 30.18 851 25.13 -7.7 18.1 86 -9.7 14.6
19:15 1022 30.18 851 25.13 -7.7 18.1 86 -9.7 14.6
19:20 1022 30.18 851 25.13 -7.7 18.1 86 -9.7 14.5
19:25 1022 30.18 851 25.13 -7.7 18.1 86 -9.7 14.5
19:30 1022 30.18 851 25.13 -7.8 18.1 86 -9.8 14.4
19:35 1022 30.18 851 25.13 -7.7 18.1 85 -9.8 14.4
19:40 1022 30.18 851 25.13 -7.6 18.3 84 -9.8 14.3
19:45 1022 30.18 851 25.13 -7.6 18.2 85 -9.8 14.3
19:50 1022 30.18 851 25.13 -7.6 18.4 84 -9.8 14.3
19:55 1022 30.18 851 25.13 -7.6 18.2 83 -10.1 13.9
20:00 1022 30.18 851 25.13 -7.8 18 83 -10.1 13.8
20:05 1022 30.18 851 25.13 -7.7 18.2 81 -10.4 13.3
20:10 1022 30.18 851 25.13 -7.8 17.9 83 -10.2 13.6
20:15 1022 30.18 851 25.13 -7.9 17.8 82 -10.5 13.2
20:20 1022 30.18 851 25.13 -7.8 18 82 -10.4 13.3
20:25 1022 30.18 851 25.13 -7.7 18.2 82 -10.2 13.6
20:30 1022 30.18 851 25.13 -8 17.6 84 -10.2 13.7
20:35 1021 30.15 851 25.13 -7.9 17.8 83 -10.3 13.5
20:40 1021 30.15 851 25.13 -7.7 18.1 83 -10.1 13.8
20:45 1021 30.15 851 25.13 -7.7 18.2 83 -10 14
20:50 1021 30.15 851 25.13 -7.8 18 83 -10.2 13.6
20:55 1021 30.15 850 25.1 -7.9 17.7 82 -10.4 13.2
21:00 1021 30.15 850 25.1 -7.8 18 82 -10.4 13.3
21:05 1021 30.15 850 25.1 -7.5 18.5 80 -10.3 13.4
21:10 1021 30.15 851 25.13 -7.6 18.3 80 -10.4 13.2
21:15 1021 30.15 851 25.13 -7.6 18.4 81 -10.3 13.4
21:20 1021 30.15 851 25.13 -7.3 18.8 79 -10.4 13.2
21:25 1021 30.15 850 25.1 -7.2 19 80 -10.1 13.9
21:30 1021 30.15 851 25.13 -7.1 19.1 77 -10.4 13.2
21:35 1021 30.15 851 25.13 -7.1 19.2 79 -10.2 13.6
21:40 1021 30.15 851 25.13 -6.9 19.5 78 -10.2 13.7
21:45 1021 30.15 851 25.13 -6.8 19.7 78 -10.1 13.8
21:50 1021 30.15 850 25.1 -6.9 19.5 79 -10 14
21:55 1021 30.15 850 25.1 -7.1 19.2 80 -10 14
22:00 1021 30.15 850 25.1 -7.3 18.9 80 -10.1 13.8
22:05 1021 30.15 850 25.1 -7.5 18.5 79 -10.5 13.1
22:10 1021 30.15 850 25.1 -7.6 18.4 80 -10.5 13.2
22:15 1021 30.15 850 25.1 -7.4 18.7 79 -10.5 13.1
22:20 1021 30.15 850 25.1 -7.1 19.1 77 -10.5 13.2
22:25 1021 30.15 850 25.1 -6.9 19.5 79 -10.1 13.9
22:30 1021 30.15 850 25.1 -6.8 19.7 77 -10.1 13.8
22:35 1021 30.15 850 25.1 -6.7 19.9 77 -10.1 13.8
22:40 1021 30.15 850 25.1 -6.6 20.2 78 -9.8 14.3
22:45 1021 30.15 850 25.1 -6.4 20.5 78 -9.6 14.7
22:50 1021 30.15 850 25.1 -6.3 20.7 76 -9.9 14.2
22:55 1021 30.15 850 25.1 -6.3 20.7 76 -9.8 14.3
23:00 1021 30.15 850 25.1 -6.2 20.8 76 -9.8 14.4
23:05 1021 30.15 850 25.1 -6.1 21 74 -10 14
23:10 1021 30.15 850 25.1 -6 21.1 74 -9.9 14.2
23:15 1021 30.15 850 25.1 -5.9 21.4 73 -9.9 14.1
23:20 1021 30.15 850 25.1 -5.9 21.4 75 -9.6 14.6
23:25 1021 30.15 850 25.1 -5.9 21.4 75 -9.7 14.6
23:30 1021 30.15 850 25.1 -6 21.3 76 -9.5 15
23:35 1021 30.15 850 25.1 -6 21.2 76 -9.6 14.7
23:40 1021 30.15 850 25.1 -6.1 21.1 76 -9.6 14.6
23:45 1021 30.15 850 25.1 -6.1 21 78 -9.4 15.1
23:50 1021 30.15 850 25.1 -6.3 20.7 81 -9 15.8
23:55 1020 30.12 850 25.1 -6.3 20.7 84 -8.6 16.5
24:00 1020 30.12 850 25.1 -6.2 20.8 85 -8.3 17